Disclaimer

    

CYXX

METAR CYXX 140300Z 01004KT 10SM -SHRA FEW010 SCT019 BKN030 OVC042 05/04 A3001 RMK SF1CU2SC4SC1 -SHRA VRY LGT SLP166=

SPECI CYXX 140225Z 03003KT 10SM -SHRA FEW010 BKN019 BKN030 OVC041 05/04 A3002 RMK SF1SC4SC2SC1 SLP168=

METAR CYXX 140200Z 03006KT 10SM FEW011 SCT020 BKN031 BKN041 05/04 A3002 RMK SC1SC2SC3SC1 SLP170=

METAR CYXX 140100Z 03006KT 10SM FEW003 FEW010 BKN015 OVC033 05/05 A3003 RMK SF1CU2SC3SC3 SF TR SLP172=

TAF AMD CYXX 140011Z 1400/1424 04006KT P6SM SCT005 BKN030 TEMPO 1400/1403 3SM -SHRA BR SCT003 OVC005 PROB30 1400/1403 BKN003
FM140300 VRB03KT P6SM SCT008 OVC020 TEMPO 1403/1416 2SM -SHRA BR SCT003 OVC008 PROB30 1406/1415 3/4SM -SHRA BR BKN003
FM141600 VRB03KT P6SM SCT012 OVC020 TEMPO 1416/1424 4SM -SHRA BR SCT008 BKN012 PROB30 1416/1424 2SM -SHRA BR SCT003 OVC008 RMK NXT FCST BY 140600Z=

CYVR

METAR CYVR 140300Z 08007KT 20SM BKN015 OVC045 06/05 A3001 RMK SC7SC1 SLP163=

METAR CYVR 140200Z 07006KT 15SM BKN017 OVC052 06/05 A3002 RMK SC6SC2 SLP166=

SPECI CYVR 140115Z 06005KT 15SM BKN015 06/05 A3002 RMK SC7 SLP168=

METAR CYVR 140100Z 08004KT 060V130 15SM -SHRA BKN014 BKN032 06/05 A3002 RMK SC6SC1 CVCTV CLD EMBD SLP168=

TAF CYVR 140238Z 1403/1506 08006KT P6SM SCT012 BKN050 TEMPO 1403/1406 4SM -SHRA BR SCT006 BKN012 OVC050
FM140600 08005KT P6SM SCT005 BKN012 OVC040 TEMPO 1406/1417 2SM -SHRA BR OVC005
FM141700 09006KT P6SM SCT012 OVC025 TEMPO 1417/1506 5SM -SHRA BR OVC012 BECMG 1420/1422 30006KT RMK NXT FCST BY 140600Z=

CYCD

METAR CYCD 140300Z VRB02KT 5SM BR MIFG SCT013 OVC045 04/04 A3000 RMK SF3SC5 MIFG N SLP163=

SPECI CYCD 140219Z CCA 24003KT 5SM BR SCT007 OVC042 05/05 A3001 RMK SF4SC4 SLP166=

SPECI CYCD 140219Z 24003KT 5SM BR SCT007 OVC042 05/05 A3001 RMK SF4SC4 CIG RAG SLP166=

METAR CYCD 140200Z 24003KT 4SM BR BKN004 OVC040 05/05 A3002 RMK SF7SC1 CIG RAG SLP167=

SPECI CYCD 140144Z 00000KT 4SM BR MIFG BKN009 OVC042 05/05 A3002 RMK SF5SC3 VIS LWR N-E SLP167=

METAR CYCD 140100Z 26003KT 4SM BR MIFG FEW005 BKN040 06/05 A3002 RMK SF2SC4 VIS NW-E 1BR SLP168=

TAF CYCD 132338Z 1400/1405 VRB03KT P6SM SCT012 BKN040 TEMPO 1400/1405 4SM -SHRA BR SCT008 BKN010 PROB40 1400/1405 2SM -SHRA BR BKN008 RMK NXT FCST WILL BE ISSUED AT 141545Z=

Supplemental information

Lower mainland ATIS: 1-877-517-2847

CZBB (Boundary Bay) current winds

Upper winds (Vancouver)

Data fromValid at300060009000
14000014060029052805-052705-12
14000014120099009900-069900-12
14000015000099009900-073305-12

NOTAMs

Ten newest NOTAMs per file () are highlighted.